sensor_id;sensor_type;location;lat;lon;timestamp;pressure;altitude;pressure_sealevel;temperature;humidity
59289;BME280;45056;47.602;9.886;2023-02-15T00:00:15;94052.19;;;2.42;56.77
59289;BME280;45056;47.602;9.886;2023-02-15T00:02:43;94054.06;;;2.38;57.28
59289;BME280;45056;47.602;9.886;2023-02-15T00:05:13;94050.16;;;2.35;57.33
59289;BME280;45056;47.602;9.886;2023-02-15T00:07:41;94047.41;;;2.31;57.14
59289;BME280;45056;47.602;9.886;2023-02-15T00:10:09;94050.06;;;2.28;57.47
59289;BME280;45056;47.602;9.886;2023-02-15T00:12:38;94044.28;;;2.26;57.28
59289;BME280;45056;47.602;9.886;2023-02-15T00:15:07;94038.91;;;2.26;57.56
59289;BME280;45056;47.602;9.886;2023-02-15T00:17:35;94037.78;;;2.27;57.28
59289;BME280;45056;47.602;9.886;2023-02-15T00:20:04;94035.09;;;2.27;57.37
59289;BME280;45056;47.602;9.886;2023-02-15T00:22:34;94033.53;;;2.26;57.22
59289;BME280;45056;47.602;9.886;2023-02-15T00:25:02;94035.81;;;2.24;57.48
59289;BME280;45056;47.602;9.886;2023-02-15T00:27:30;94028.91;;;2.23;57.45
59289;BME280;45056;47.602;9.886;2023-02-15T00:29:58;94022.69;;;2.19;57.23
59289;BME280;45056;47.602;9.886;2023-02-15T00:32:26;94037.59;;;2.16;57.26
59289;BME280;45056;47.602;9.886;2023-02-15T00:34:54;94033.31;;;2.11;57.56
59289;BME280;45056;47.602;9.886;2023-02-15T00:37:22;94026.38;;;2.10;57.85
59289;BME280;45056;47.602;9.886;2023-02-15T00:39:52;94024.06;;;2.09;57.52
59289;BME280;45056;47.602;9.886;2023-02-15T00:42:20;94023.66;;;2.07;57.80
59289;BME280;45056;47.602;9.886;2023-02-15T00:44:48;94028.63;;;2.05;57.58
59289;BME280;45056;47.602;9.886;2023-02-15T00:47:16;94019.03;;;2.04;57.58
59289;BME280;45056;47.602;9.886;2023-02-15T00:49:44;94028.97;;;2.03;57.44
59289;BME280;45056;47.602;9.886;2023-02-15T00:52:12;94031.66;;;2.03;57.61
59289;BME280;45056;47.602;9.886;2023-02-15T00:54:40;94031.66;;;2.03;57.72
59289;BME280;45056;47.602;9.886;2023-02-15T00:57:09;94020.91;;;2.03;57.59
59289;BME280;45056;47.602;9.886;2023-02-15T00:59:37;94020.13;;;2.02;57.51
59289;BME280;45056;47.602;9.886;2023-02-15T01:02:05;94020.91;;;2.03;57.77
59289;BME280;45056;47.602;9.886;2023-02-15T01:04:33;94012.44;;;2.01;57.94
59289;BME280;45056;47.602;9.886;2023-02-15T01:07:01;94017.81;;;2.01;57.54
59289;BME280;45056;47.602;9.886;2023-02-15T01:09:30;94010.91;;;2.00;57.67
59289;BME280;45056;47.602;9.886;2023-02-15T01:11:58;94015.06;;;1.97;58.07
59289;BME280;45056;47.602;9.886;2023-02-15T01:14:27;94020.81;;;1.96;57.43
59289;BME280;45056;47.602;9.886;2023-02-15T01:16:55;94017.00;;;1.97;57.40
59289;BME280;45056;47.602;9.886;2023-02-15T01:19:23;94020.41;;;1.94;57.60
59289;BME280;45056;47.602;9.886;2023-02-15T01:21:51;94019.19;;;1.91;57.38
59289;BME280;45056;47.602;9.886;2023-02-15T01:24:19;94019.91;;;1.88;57.71
59289;BME280;45056;47.602;9.886;2023-02-15T01:26:47;94019.84;;;1.84;57.45
59289;BME280;45056;47.602;9.886;2023-02-15T01:29:15;94022.50;;;1.81;57.80
59289;BME280;45056;47.602;9.886;2023-02-15T01:31:44;94013.59;;;1.77;58.23
59289;BME280;45056;47.602;9.886;2023-02-15T01:34:12;94016.63;;;1.75;57.91
59289;BME280;45056;47.602;9.886;2023-02-15T01:36:40;94015.38;;;1.69;57.96
59289;BME280;45056;47.602;9.886;2023-02-15T01:39:08;94012.28;;;1.67;58.20
59289;BME280;45056;47.602;9.886;2023-02-15T01:41:36;94013.84;;;1.68;58.25
59289;BME280;45056;47.602;9.886;2023-02-15T01:47:22;94004.66;;;1.69;58.25
59289;BME280;45056;47.602;9.886;2023-02-15T01:50:02;94005.06;;;1.71;58.37
59289;BME280;45056;47.602;9.886;2023-02-15T01:52:38;94015.81;;;1.71;57.95
59289;BME280;45056;47.602;9.886;2023-02-15T01:55:11;94015.81;;;1.71;57.80
59289;BME280;45056;47.602;9.886;2023-02-15T01:57:41;94013.47;;;1.69;57.74
59289;BME280;45056;47.602;9.886;2023-02-15T02:00:13;94007.34;;;1.69;58.18
59289;BME280;45056;47.602;9.886;2023-02-15T02:02:47;94007.69;;;1.67;57.99
59289;BME280;45056;47.602;9.886;2023-02-15T02:05:17;94007.63;;;1.64;57.64
59289;BME280;45056;47.602;9.886;2023-02-15T02:07:48;94008.69;;;1.59;57.73
59289;BME280;45056;47.602;9.886;2023-02-15T02:10:22;94007.53;;;1.56;57.81
59289;BME280;45056;47.602;9.886;2023-02-15T02:12:54;93998.69;;;1.56;57.72
59289;BME280;45056;47.602;9.886;2023-02-15T02:15:34;94001.72;;;1.54;58.11
59289;BME280;45056;47.602;9.886;2023-02-15T02:18:23;93996.34;;;1.54;57.81
59289;BME280;45056;47.602;9.886;2023-02-15T02:21:30;93996.78;;;1.56;57.94
59289;BME280;45056;47.602;9.886;2023-02-15T02:24:48;93995.66;;;1.57;57.88
59289;BME280;45056;47.602;9.886;2023-02-15T02:27:45;93990.28;;;1.57;58.03
59289;BME280;45056;47.602;9.886;2023-02-15T02:30:48;94001.03;;;1.57;57.83
59289;BME280;45056;47.602;9.886;2023-02-15T02:36:42;93996.66;;;1.49;57.94
59289;BME280;45056;47.602;9.886;2023-02-15T02:39:33;94003.16;;;1.48;58.18
59289;BME280;45056;47.602;9.886;2023-02-15T02:42:15;93997.03;;;1.48;58.36
59289;BME280;45056;47.602;9.886;2023-02-15T02:44:56;93995.47;;;1.47;58.02
59289;BME280;45056;47.602;9.886;2023-02-15T02:47:34;94005.41;;;1.46;58.28
59289;BME280;45056;47.602;9.886;2023-02-15T02:50:13;94003.03;;;1.41;58.20
59289;BME280;45056;47.602;9.886;2023-02-15T02:52:45;93993.03;;;1.38;58.41
59289;BME280;45056;47.602;9.886;2023-02-15T02:55:22;93990.69;;;1.36;58.51
59289;BME280;45056;47.602;9.886;2023-02-15T02:57:59;93986.09;;;1.37;58.12
59289;BME280;45056;47.602;9.886;2023-02-15T03:00:37;93998.38;;;1.38;58.27
59289;BME280;45056;47.602;9.886;2023-02-15T03:03:13;94000.28;;;1.37;58.46
59289;BME280;45056;47.602;9.886;2023-02-15T03:05:54;93999.50;;;1.37;58.45
59289;BME280;45056;47.602;9.886;2023-02-15T03:08:33;93989.91;;;1.36;58.22
59289;BME280;45056;47.602;9.886;2023-02-15T03:11:06;93992.59;;;1.36;58.46
59289;BME280;45056;47.602;9.886;2023-02-15T03:13:35;93991.81;;;1.35;58.04
59289;BME280;45056;47.602;9.886;2023-02-15T03:16:05;93996.00;;;1.33;57.96
59289;BME280;45056;47.602;9.886;2023-02-15T03:18:59;94000.09;;;1.26;58.40
59289;BME280;45056;47.602;9.886;2023-02-15T03:21:40;94001.91;;;1.22;58.57
59289;BME280;45056;47.602;9.886;2023-02-15T03:24:19;93997.28;;;1.19;58.21
59289;BME280;45056;47.602;9.886;2023-02-15T03:26:53;93996.50;;;1.19;58.54
59289;BME280;45056;47.602;9.886;2023-02-15T03:29:26;94001.09;;;1.18;58.34
59289;BME280;45056;47.602;9.886;2023-02-15T03:32:01;94000.31;;;1.18;58.49
59289;BME280;45056;47.602;9.886;2023-02-15T03:34:32;94002.63;;;1.19;58.30
59289;BME280;45056;47.602;9.886;2023-02-15T03:37:10;94002.63;;;1.19;58.55
59289;BME280;45056;47.602;9.886;2023-02-15T03:39:49;94001.09;;;1.18;58.14
59289;BME280;45056;47.602;9.886;2023-02-15T03:42:28;93999.19;;;1.19;58.00
59289;BME280;45056;47.602;9.886;2023-02-15T03:45:05;94003.44;;;1.20;58.09
59289;BME280;45056;47.602;9.886;2023-02-15T03:47:44;94007.22;;;1.19;58.17
59289;BME280;45056;47.602;9.886;2023-02-15T03:50:19;94008.38;;;1.18;58.54
59289;BME280;45056;47.602;9.886;2023-02-15T03:53:15;93996.84;;;1.17;58.13
59289;BME280;45056;47.602;9.886;2023-02-15T03:55:47;93998.78;;;1.17;58.50
59289;BME280;45056;47.602;9.886;2023-02-15T03:58:16;94001.03;;;1.14;58.25
59289;BME280;45056;47.602;9.886;2023-02-15T04:01:09;94002.50;;;1.12;58.44
59289;BME280;45056;47.602;9.886;2023-02-15T04:04:03;94004.69;;;1.06;58.12
59289;BME280;45056;47.602;9.886;2023-02-15T04:06:38;94007.75;;;1.05;58.17
59289;BME280;45056;47.602;9.886;2023-02-15T04:09:08;94006.19;;;1.04;58.45
59289;BME280;45056;47.602;9.886;2023-02-15T04:11:53;94004.66;;;1.03;58.33
59289;BME280;45056;47.602;9.886;2023-02-15T04:14:21;94001.53;;;1.00;58.50
59289;BME280;45056;47.602;9.886;2023-02-15T04:17:07;94003.84;;;1.02;58.45
59289;BME280;45056;47.602;9.886;2023-02-15T04:19:36;94006.13;;;1.00;58.45
59289;BME280;45056;47.602;9.886;2023-02-15T04:22:21;94001.53;;;1.00;58.57
59289;BME280;45056;47.602;9.886;2023-02-15T04:25:08;94004.66;;;1.03;58.71
59289;BME280;45056;47.602;9.886;2023-02-15T04:27:41;94009.22;;;1.02;58.62
59289;BME280;45056;47.602;9.886;2023-02-15T04:30:13;93998.50;;;1.02;58.69
59289;BME280;45056;47.602;9.886;2023-02-15T04:32:42;93996.59;;;1.03;58.42
59289;BME280;45056;47.602;9.886;2023-02-15T04:35:10;94003.09;;;1.02;58.45
59289;BME280;45056;47.602;9.886;2023-02-15T04:37:40;94000.00;;;0.99;58.55
59289;BME280;45056;47.602;9.886;2023-02-15T04:40:12;94003.81;;;0.98;58.32
59289;BME280;45056;47.602;9.886;2023-02-15T04:42:41;94007.59;;;0.97;58.20
59289;BME280;45056;47.602;9.886;2023-02-15T04:45:09;94012.97;;;0.97;58.30
59289;BME280;45056;47.602;9.886;2023-02-15T04:47:37;94010.63;;;0.96;58.07
59289;BME280;45056;47.602;9.886;2023-02-15T04:50:07;94005.63;;;0.94;58.38
59289;BME280;45056;47.602;9.886;2023-02-15T04:52:35;94000.63;;;0.93;58.45
59289;BME280;45056;47.602;9.886;2023-02-15T04:55:04;94007.88;;;0.92;58.31
59289;BME280;45056;47.602;9.886;2023-02-15T04:57:34;94005.91;;;0.89;58.58
59289;BME280;45056;47.602;9.886;2023-02-15T05:00:02;94008.25;;;0.91;58.23
59289;BME280;45056;47.602;9.886;2023-02-15T05:02:31;94008.25;;;0.91;58.24
59289;BME280;45056;47.602;9.886;2023-02-15T05:04:59;94008.56;;;0.89;58.20
59289;BME280;45056;47.602;9.886;2023-02-15T05:07:27;94003.22;;;0.89;58.11
59289;BME280;45056;47.602;9.886;2023-02-15T05:09:55;94009.72;;;0.88;58.42
59289;BME280;45056;47.602;9.886;2023-02-15T05:12:23;94008.53;;;0.85;58.04
59289;BME280;45056;47.602;9.886;2023-02-15T05:14:52;94002.75;;;0.83;57.99
59289;BME280;45056;47.602;9.886;2023-02-15T05:17:20;94006.56;;;0.82;58.41
59289;BME280;45056;47.602;9.886;2023-02-15T05:19:48;94000.41;;;0.82;58.12
59289;BME280;45056;47.602;9.886;2023-02-15T05:22:16;93993.50;;;0.81;58.50
59289;BME280;45056;47.602;9.886;2023-02-15T05:24:44;93995.75;;;0.79;58.32
59289;BME280;45056;47.602;9.886;2023-02-15T05:27:29;93996.19;;;0.81;58.51
59289;BME280;45056;47.602;9.886;2023-02-15T05:30:15;93998.09;;;0.80;58.51
59289;BME280;45056;47.602;9.886;2023-02-15T05:32:43;94003.09;;;0.82;58.70
59289;BME280;45056;47.602;9.886;2023-02-15T05:35:14;93999.66;;;0.81;58.31
59289;BME280;45056;47.602;9.886;2023-02-15T05:37:43;93996.97;;;0.81;58.56
59289;BME280;45056;47.602;9.886;2023-02-15T05:40:11;94000.78;;;0.80;58.31
59289;BME280;45056;47.602;9.886;2023-02-15T05:42:39;93998.78;;;0.77;58.30
59289;BME280;45056;47.602;9.886;2023-02-15T05:45:07;93995.75;;;0.79;58.52
59289;BME280;45056;47.602;9.886;2023-02-15T05:47:37;94005.72;;;0.78;58.08
59289;BME280;45056;47.602;9.886;2023-02-15T05:50:06;94004.13;;;0.77;58.09
59289;BME280;45056;47.602;9.886;2023-02-15T05:52:34;94000.28;;;0.75;58.18
59289;BME280;45056;47.602;9.886;2023-02-15T05:55:03;94006.75;;;0.74;58.24
59289;BME280;45056;47.602;9.886;2023-02-15T05:57:31;94005.97;;;0.73;58.23
59289;BME280;45056;47.602;9.886;2023-02-15T05:59:59;94005.22;;;0.73;58.34
59289;BME280;45056;47.602;9.886;2023-02-15T06:02:27;94004.06;;;0.74;58.47
59289;BME280;45056;47.602;9.886;2023-02-15T06:04:56;94000.28;;;0.75;58.63
59289;BME280;45056;47.602;9.886;2023-02-15T06:07:24;93990.25;;;0.71;58.19
59289;BME280;45056;47.602;9.886;2023-02-15T06:09:52;94004.38;;;0.68;58.49
59289;BME280;45056;47.602;9.886;2023-02-15T06:12:20;94005.81;;;0.66;58.26
59289;BME280;45056;47.602;9.886;2023-02-15T06:14:48;94006.19;;;0.64;58.68
59289;BME280;45056;47.602;9.886;2023-02-15T06:17:16;94000.38;;;0.62;58.64
59289;BME280;45056;47.602;9.886;2023-02-15T06:19:44;94009.22;;;0.63;58.57
59289;BME280;45056;47.602;9.886;2023-02-15T06:22:14;94003.84;;;0.63;58.66
59289;BME280;45056;47.602;9.886;2023-02-15T06:24:42;94008.88;;;0.64;58.56
59289;BME280;45056;47.602;9.886;2023-02-15T06:27:10;94006.97;;;0.65;58.57
59289;BME280;45056;47.602;9.886;2023-02-15T06:29:38;94007.75;;;0.65;58.53
59289;BME280;45056;47.602;9.886;2023-02-15T06:32:06;94009.72;;;0.68;58.69
59289;BME280;45056;47.602;9.886;2023-02-15T06:34:35;94008.22;;;0.71;58.53
59289;BME280;45056;47.602;9.886;2023-02-15T06:37:03;94020.16;;;0.74;58.51
59289;BME280;45056;47.602;9.886;2023-02-15T06:39:32;94014.78;;;0.74;58.43
59289;BME280;45056;47.602;9.886;2023-02-15T06:42:00;94017.09;;;0.75;58.49
59289;BME280;45056;47.602;9.886;2023-02-15T06:44:28;94022.88;;;0.77;58.61
59289;BME280;45056;47.602;9.886;2023-02-15T06:46:56;94023.34;;;0.79;58.22
59289;BME280;45056;47.602;9.886;2023-02-15T06:49:24;94019.16;;;0.82;58.55
59289;BME280;45056;47.602;9.886;2023-02-15T06:51:52;94026.06;;;0.83;58.38
59289;BME280;45056;47.602;9.886;2023-02-15T06:54:20;94023.47;;;0.86;58.58
59289;BME280;45056;47.602;9.886;2023-02-15T06:56:50;94021.22;;;0.89;58.49
59289;BME280;45056;47.602;9.886;2023-02-15T06:59:18;94025.09;;;0.91;58.39
59289;BME280;45056;47.602;9.886;2023-02-15T07:01:46;94027.09;;;0.94;58.15
59289;BME280;45056;47.602;9.886;2023-02-15T07:04:14;94025.25;;;0.98;58.58
59289;BME280;45056;47.602;9.886;2023-02-15T07:06:42;94036.00;;;1.02;58.50
59289;BME280;45056;47.602;9.886;2023-02-15T07:09:10;94033.00;;;1.04;58.34
59289;BME280;45056;47.602;9.886;2023-02-15T07:11:39;94033.75;;;1.04;58.18
59289;BME280;45056;47.602;9.886;2023-02-15T07:14:26;94036.09;;;1.06;58.57
59289;BME280;45056;47.602;9.886;2023-02-15T07:16:54;94035.72;;;1.07;58.17
59289;BME280;45056;47.602;9.886;2023-02-15T07:19:22;94036.19;;;1.09;58.01
59289;BME280;45056;47.602;9.886;2023-02-15T07:21:50;94035.47;;;1.12;58.18
59289;BME280;45056;47.602;9.886;2023-02-15T07:24:18;94041.66;;;1.17;58.55
59289;BME280;45056;47.602;9.886;2023-02-15T07:26:46;94028.31;;;1.20;57.98
59289;BME280;45056;47.602;9.886;2023-02-15T07:29:14;94028.72;;;1.22;58.27
59289;BME280;45056;47.602;9.886;2023-02-15T07:31:44;94036.84;;;1.26;58.19
59289;BME280;45056;47.602;9.886;2023-02-15T07:34:12;94036.16;;;1.29;58.49
59289;BME280;45056;47.602;9.886;2023-02-15T07:36:40;94033.97;;;1.35;58.14
59289;BME280;45056;47.602;9.886;2023-02-15T07:39:08;94032.88;;;1.39;58.23
59289;BME280;45056;47.602;9.886;2023-02-15T07:41:36;94036.06;;;1.45;58.52
59289;BME280;45056;47.602;9.886;2023-02-15T07:44:04;94024.25;;;1.50;58.25
59289;BME280;45056;47.602;9.886;2023-02-15T07:46:32;94026.31;;;1.56;58.58
59289;BME280;45056;47.602;9.886;2023-02-15T07:49:02;94023.31;;;1.62;58.32
59289;BME280;45056;47.602;9.886;2023-02-15T07:51:30;94026.47;;;1.67;58.41
59289;BME280;45056;47.602;9.886;2023-02-15T07:53:58;94020.03;;;1.72;58.69
59289;BME280;45056;47.602;9.886;2023-02-15T07:56:26;94018.59;;;1.78;58.54
59289;BME280;45056;47.602;9.886;2023-02-15T07:58:54;94018.72;;;1.85;58.70
59289;BME280;45056;47.602;9.886;2023-02-15T08:01:26;94017.72;;;1.94;58.51
59289;BME280;45056;47.602;9.886;2023-02-15T08:03:58;94025.09;;;2.00;59.08
59289;BME280;45056;47.602;9.886;2023-02-15T08:06:31;94003.72;;;2.08;58.62
59289;BME280;45056;47.602;9.886;2023-02-15T08:09:03;94012.31;;;2.17;58.91
59289;BME280;45056;47.602;9.886;2023-02-15T08:11:33;94007.09;;;2.28;58.78
59289;BME280;45056;47.602;9.886;2023-02-15T08:14:08;94007.66;;;2.41;58.51
59289;BME280;45056;47.602;9.886;2023-02-15T08:16:40;94010.94;;;2.57;57.14
59289;BME280;45056;47.602;9.886;2023-02-15T08:19:12;94008.13;;;2.77;55.37
59289;BME280;45056;47.602;9.886;2023-02-15T08:21:45;94008.81;;;3.01;54.30
59289;BME280;45056;47.602;9.886;2023-02-15T08:24:16;94006.38;;;3.26;53.48
59289;BME280;45056;47.602;9.886;2023-02-15T08:26:45;94003.69;;;3.64;53.11
59289;BME280;45056;47.602;9.886;2023-02-15T08:29:16;94008.13;;;4.39;52.44
59289;BME280;45056;47.602;9.886;2023-02-15T08:31:45;94009.31;;;5.30;50.95
59289;BME280;45056;47.602;9.886;2023-02-15T08:34:16;94009.47;;;6.21;49.20
59289;BME280;45056;47.602;9.886;2023-02-15T08:36:47;94009.28;;;7.01;47.36
59289;BME280;45056;47.602;9.886;2023-02-15T08:39:15;93997.88;;;7.53;45.79
59289;BME280;45056;47.602;9.886;2023-02-15T08:41:45;93995.31;;;7.91;44.46
59289;BME280;45056;47.602;9.886;2023-02-15T08:44:16;94000.06;;;8.29;43.27
59289;BME280;45056;47.602;9.886;2023-02-15T08:46:47;94000.56;;;8.62;42.32
59289;BME280;45056;47.602;9.886;2023-02-15T08:49:18;94001.03;;;8.92;40.65
59289;BME280;45056;47.602;9.886;2023-02-15T08:51:49;93998.44;;;9.16;40.20
59289;BME280;45056;47.602;9.886;2023-02-15T08:54:20;93995.50;;;9.34;39.89
59289;BME280;45056;47.602;9.886;2023-02-15T08:56:49;93998.09;;;9.45;39.77
59289;BME280;45056;47.602;9.886;2023-02-15T08:59:19;93994.09;;;9.53;39.97
59289;BME280;45056;47.602;9.886;2023-02-15T09:01:51;94002.94;;;9.57;39.88
59289;BME280;45056;47.602;9.886;2023-02-15T09:04:20;93996.34;;;9.58;40.00
59289;BME280;45056;47.602;9.886;2023-02-15T09:06:51;94011.81;;;9.61;39.47
59289;BME280;45056;47.602;9.886;2023-02-15T09:09:20;93993.16;;;9.63;39.38
59289;BME280;45056;47.602;9.886;2023-02-15T09:11:50;93989.63;;;9.66;39.87
59289;BME280;45056;47.602;9.886;2023-02-15T09:14:19;93994.19;;;9.73;39.59
59289;BME280;45056;47.602;9.886;2023-02-15T09:16:51;93990.63;;;9.80;39.07
59289;BME280;45056;47.602;9.886;2023-02-15T09:19:21;93998.66;;;9.87;38.75
59289;BME280;45056;47.602;9.886;2023-02-15T09:21:51;93989.63;;;9.94;38.92
59289;BME280;45056;47.602;9.886;2023-02-15T09:24:20;93987.31;;;9.92;40.70
59289;BME280;45056;47.602;9.886;2023-02-15T09:26:48;93991.28;;;9.88;42.46
59289;BME280;45056;47.602;9.886;2023-02-15T09:29:17;93993.69;;;9.82;42.02
59289;BME280;45056;47.602;9.886;2023-02-15T09:31:47;93997.94;;;9.83;42.04
59289;BME280;45056;47.602;9.886;2023-02-15T09:34:20;93990.16;;;9.85;42.14
59289;BME280;45056;47.602;9.886;2023-02-15T09:36:51;93994.00;;;9.88;43.55
59289;BME280;45056;47.602;9.886;2023-02-15T09:39:22;94001.38;;;9.87;44.67
59289;BME280;45056;47.602;9.886;2023-02-15T09:45:33;93990.75;;;9.96;44.92
59289;BME280;45056;47.602;9.886;2023-02-15T09:48:27;93991.53;;;9.97;44.74
59289;BME280;45056;47.602;9.886;2023-02-15T09:51:24;93997.22;;;10.06;43.42
59289;BME280;45056;47.602;9.886;2023-02-15T09:54:18;94001.31;;;10.18;42.76
59289;BME280;45056;47.602;9.886;2023-02-15T09:57:03;93998.47;;;10.25;42.63
59289;BME280;45056;47.602;9.886;2023-02-15T09:59:49;93993.19;;;10.42;42.44
59289;BME280;45056;47.602;9.886;2023-02-15T10:02:41;94006.47;;;10.60;42.09
59289;BME280;45056;47.602;9.886;2023-02-15T10:05:33;94006.88;;;10.82;41.77
59289;BME280;45056;47.602;9.886;2023-02-15T10:11:53;94008.22;;;11.15;39.74
59289;BME280;45056;47.602;9.886;2023-02-15T10:14:52;93999.91;;;11.22;39.83
59289;BME280;45056;47.602;9.886;2023-02-15T10:17:53;93993.25;;;11.23;38.70
59289;BME280;45056;47.602;9.886;2023-02-15T10:20:46;93994.34;;;11.29;39.26
59289;BME280;45056;47.602;9.886;2023-02-15T10:23:44;93999.63;;;11.36;38.63
59289;BME280;45056;47.602;9.886;2023-02-15T10:26:31;93994.81;;;11.44;38.37
59289;BME280;45056;47.602;9.886;2023-02-15T10:29:09;93987.66;;;11.50;37.94
59289;BME280;45056;47.602;9.886;2023-02-15T10:31:49;93982.06;;;11.58;38.49
59289;BME280;45056;47.602;9.886;2023-02-15T10:34:23;93979.50;;;11.67;38.99
59289;BME280;45056;47.602;9.886;2023-02-15T10:37:23;93983.63;;;11.75;38.64
59289;BME280;45056;47.602;9.886;2023-02-15T10:40:11;93976.50;;;11.81;38.49
59289;BME280;45056;47.602;9.886;2023-02-15T10:46:10;93970.19;;;11.84;38.20
59289;BME280;45056;47.602;9.886;2023-02-15T10:49:09;93962.00;;;11.84;36.90
59289;BME280;45056;47.602;9.886;2023-02-15T10:52:05;93955.13;;;11.96;35.75
59289;BME280;45056;47.602;9.886;2023-02-15T10:54:48;93957.53;;;12.11;35.14
59289;BME280;45056;47.602;9.886;2023-02-15T10:57:32;93952.94;;;12.24;35.07
59289;BME280;45056;47.602;9.886;2023-02-15T11:00:17;93961.00;;;12.45;35.21
59289;BME280;45056;47.602;9.886;2023-02-15T11:03:11;93945.38;;;12.62;35.57
59289;BME280;45056;47.602;9.886;2023-02-15T11:06:04;93950.59;;;12.86;34.89
59289;BME280;45056;47.602;9.886;2023-02-15T11:08:40;93944.66;;;13.04;34.39
59289;BME280;45056;47.602;9.886;2023-02-15T11:11:20;93940.13;;;13.26;35.57
59289;BME280;45056;47.602;9.886;2023-02-15T11:13:56;93941.38;;;13.51;33.54
59289;BME280;45056;47.602;9.886;2023-02-15T11:16:32;93935.69;;;13.71;33.10
59289;BME280;45056;47.602;9.886;2023-02-15T11:19:12;93934.59;;;13.95;32.93
59289;BME280;45056;47.602;9.886;2023-02-15T11:21:50;93933.91;;;14.17;31.63
59289;BME280;45056;47.602;9.886;2023-02-15T11:24:27;93924.03;;;14.32;31.42
59289;BME280;45056;47.602;9.886;2023-02-15T11:27:02;93922.91;;;14.42;31.73
59289;BME280;45056;47.602;9.886;2023-02-15T11:29:38;93922.88;;;14.55;31.24
59289;BME280;45056;47.602;9.886;2023-02-15T11:32:19;93910.44;;;14.64;28.48
59289;BME280;45056;47.602;9.886;2023-02-15T11:34:58;93910.78;;;14.66;28.40
59289;BME280;45056;47.602;9.886;2023-02-15T11:37:36;93915.06;;;14.67;28.10
59289;BME280;45056;47.602;9.886;2023-02-15T11:40:19;93906.06;;;14.66;28.70
59289;BME280;45056;47.602;9.886;2023-02-15T11:42:56;93908.69;;;14.70;28.92
59289;BME280;45056;47.602;9.886;2023-02-15T11:45:28;93905.41;;;14.75;29.00
59289;BME280;45056;47.602;9.886;2023-02-15T11:47:58;93909.09;;;14.81;29.30
59289;BME280;45056;47.602;9.886;2023-02-15T11:50:31;93905.22;;;14.92;29.77
59289;BME280;45056;47.602;9.886;2023-02-15T11:53:04;93899.03;;;15.00;28.94
59289;BME280;45056;47.602;9.886;2023-02-15T11:55:37;93901.06;;;15.09;31.09
59289;BME280;45056;47.602;9.886;2023-02-15T11:58:16;93902.34;;;15.18;30.62
59289;BME280;45056;47.602;9.886;2023-02-15T12:00:58;93895.25;;;15.29;32.64
59289;BME280;45056;47.602;9.886;2023-02-15T12:03:43;93894.84;;;15.40;33.46
59289;BME280;45056;47.602;9.886;2023-02-15T12:06:22;93891.25;;;15.53;33.65
59289;BME280;45056;47.602;9.886;2023-02-15T12:09:01;93888.56;;;15.62;33.67
59289;BME280;45056;47.602;9.886;2023-02-15T12:11:36;93881.88;;;15.72;34.11
59289;BME280;45056;47.602;9.886;2023-02-15T12:14:08;93882.69;;;15.82;33.90
59289;BME280;45056;47.602;9.886;2023-02-15T12:16:44;93886.56;;;15.94;33.83
59289;BME280;45056;47.602;9.886;2023-02-15T12:19:28;93881.09;;;16.04;33.79
59289;BME280;45056;47.602;9.886;2023-02-15T12:22:03;93871.50;;;16.08;32.14
59289;BME280;45056;47.602;9.886;2023-02-15T12:24:38;93875.13;;;16.05;31.97
59289;BME280;45056;47.602;9.886;2023-02-15T12:27:16;93867.66;;;15.96;31.63
59289;BME280;45056;47.602;9.886;2023-02-15T12:29:51;93861.53;;;15.92;31.91
59289;BME280;45056;47.602;9.886;2023-02-15T12:32:24;93873.44;;;15.98;32.75
59289;BME280;45056;47.602;9.886;2023-02-15T12:35:00;93862.78;;;16.10;33.48
59289;BME280;45056;47.602;9.886;2023-02-15T12:37:35;93858.69;;;16.24;31.07
59289;BME280;45056;47.602;9.886;2023-02-15T12:40:20;93866.78;;;16.27;30.57
59289;BME280;45056;47.602;9.886;2023-02-15T12:42:50;93868.75;;;16.36;30.58
59289;BME280;45056;47.602;9.886;2023-02-15T12:45:24;93858.09;;;16.48;30.10
59289;BME280;45056;47.602;9.886;2023-02-15T12:48:09;93850.16;;;16.59;29.91
59289;BME280;45056;47.602;9.886;2023-02-15T12:50:43;93846.94;;;16.70;30.20
59289;BME280;45056;47.602;9.886;2023-02-15T12:53:18;93847.22;;;16.81;29.88
59289;BME280;45056;47.602;9.886;2023-02-15T12:55:53;93842.50;;;16.91;30.30
59289;BME280;45056;47.602;9.886;2023-02-15T12:58:24;93837.78;;;17.01;30.08
59289;BME280;45056;47.602;9.886;2023-02-15T13:01:10;93836.50;;;17.11;29.23
59289;BME280;45056;47.602;9.886;2023-02-15T13:03:55;93831.63;;;17.15;29.01
59289;BME280;45056;47.602;9.886;2023-02-15T13:06:29;93830.88;;;17.15;28.92
59289;BME280;45056;47.602;9.886;2023-02-15T13:09:14;93827.66;;;17.16;28.64
59289;BME280;45056;47.602;9.886;2023-02-15T13:11:46;93829.19;;;17.18;29.25
59289;BME280;45056;47.602;9.886;2023-02-15T13:14:18;93826.75;;;17.20;29.39
59289;BME280;45056;47.602;9.886;2023-02-15T13:16:51;93824.28;;;17.22;30.08
59289;BME280;45056;47.602;9.886;2023-02-15T13:19:33;93826.09;;;17.25;30.51
59289;BME280;45056;47.602;9.886;2023-02-15T13:22:08;93827.00;;;17.31;30.49
59289;BME280;45056;47.602;9.886;2023-02-15T13:24:47;93817.06;;;17.34;29.58
59289;BME280;45056;47.602;9.886;2023-02-15T13:27:20;93817.22;;;17.30;28.42
59289;BME280;45056;47.602;9.886;2023-02-15T13:29:55;93814.50;;;17.21;28.27
59289;BME280;45056;47.602;9.886;2023-02-15T13:32:31;93816.81;;;17.13;28.80
59289;BME280;45056;47.602;9.886;2023-02-15T13:35:05;93813.00;;;17.10;28.09
59289;BME280;45056;47.602;9.886;2023-02-15T13:37:55;93813.94;;;17.07;27.71
59289;BME280;45056;47.602;9.886;2023-02-15T13:40:40;93812.28;;;17.00;28.18
59289;BME280;45056;47.602;9.886;2023-02-15T13:43:25;93802.97;;;16.98;29.02
59289;BME280;45056;47.602;9.886;2023-02-15T13:46:14;93809.66;;;16.97;29.24
59289;BME280;45056;47.602;9.886;2023-02-15T13:49:03;93801.56;;;16.93;29.52
59289;BME280;45056;47.602;9.886;2023-02-15T13:51:55;93802.03;;;16.92;29.84
59289;BME280;45056;47.602;9.886;2023-02-15T13:54:53;93812.25;;;16.91;29.71
59289;BME280;45056;47.602;9.886;2023-02-15T13:58:05;93801.44;;;16.87;29.65
59289;BME280;45056;47.602;9.886;2023-02-15T14:00:54;93798.06;;;16.83;29.42
59289;BME280;45056;47.602;9.886;2023-02-15T14:07:11;93798.56;;;16.63;28.47